createdAt,value
2023-05-14T00:03:30.029Z,10.13
2023-05-14T00:09:40.447Z,10.32
2023-05-14T00:14:36.989Z,10.26
2023-05-14T00:19:33.620Z,10.07
2023-05-14T00:24:30.077Z,10.13
2023-05-14T00:30:40.749Z,9.88
2023-05-14T00:35:37.336Z,10
2023-05-14T00:40:33.818Z,10
2023-05-14T00:45:30.284Z,10
2023-05-14T00:51:40.948Z,9.94
2023-05-14T00:56:37.624Z,9.76
2023-05-14T01:01:34.195Z,9.69
2023-05-14T01:06:30.548Z,9.76
2023-05-14T01:12:41.264Z,9.82
2023-05-14T01:17:37.807Z,9.76
2023-05-14T01:22:34.325Z,9.76
2023-05-14T01:27:30.833Z,9.88
2023-05-14T01:33:41.529Z,9.88
2023-05-14T01:38:38.056Z,9.88
2023-05-14T01:43:34.903Z,9.82
2023-05-14T01:48:31.242Z,9.76
2023-05-14T01:54:41.759Z,9.76
2023-05-14T01:59:38.346Z,9.88
2023-05-14T02:04:34.911Z,9.82
2023-05-14T02:09:31.334Z,9.88
2023-05-14T02:14:27.981Z,9.88
2023-05-14T02:20:38.552Z,9.82
2023-05-14T02:25:35.097Z,9.63
2023-05-14T02:30:31.609Z,9.57
2023-05-14T02:36:42.325Z,9.63
2023-05-14T02:41:38.845Z,9.69
2023-05-14T02:46:35.459Z,9.45
2023-05-14T02:51:31.899Z,9.51
2023-05-14T02:56:28.439Z,9.51
2023-05-14T03:02:39.302Z,9.39
2023-05-14T03:06:29.690Z,9.27
2023-05-14T03:12:40.345Z,9.27
2023-05-14T03:17:36.993Z,9.21
2023-05-14T03:22:33.481Z,9.15
2023-05-14T03:33:40.594Z,9.15
2023-05-14T03:38:37.125Z,9.1
2023-05-14T03:43:33.686Z,9.15
2023-05-14T03:48:30.393Z,9.1
2023-05-14T03:54:41.145Z,9.21
2023-05-14T03:59:37.423Z,9.27
2023-05-14T04:04:34.114Z,9.39
2023-05-14T04:09:30.487Z,9.39
2023-05-14T04:15:41.298Z,9.39
2023-05-14T04:20:37.683Z,9.57
2023-05-14T04:25:34.309Z,9.63
2023-05-14T04:30:30.728Z,9.63
2023-05-14T04:36:41.438Z,9.69
2023-05-14T04:41:37.951Z,9.63
2023-05-14T04:46:34.643Z,9.76
2023-05-14T04:51:30.992Z,9.88
2023-05-14T04:57:41.676Z,9.94
2023-05-14T05:02:38.296Z,10.07
2023-05-14T05:07:34.781Z,10
2023-05-14T05:12:31.272Z,10.32
2023-05-14T05:17:27.860Z,10.26
2023-05-14T05:23:38.504Z,10.39
2023-05-14T05:28:35.027Z,10.32
2023-05-14T05:33:31.553Z,10.59
2023-05-14T05:38:28.102Z,10.59
2023-05-14T05:44:38.779Z,10.65
2023-05-14T05:49:35.379Z,10.65
2023-05-14T05:54:31.799Z,10.72
2023-05-14T06:00:42.513Z,10.79
2023-05-14T06:05:39.097Z,11.06
2023-05-14T06:10:35.610Z,11.34
2023-05-14T06:15:32.093Z,11.48
2023-05-14T06:20:28.701Z,11.69
2023-05-14T06:26:39.291Z,11.69
2023-05-14T06:31:35.911Z,11.91
2023-05-14T06:36:32.372Z,11.91
2023-05-14T06:41:28.916Z,12.13
2023-05-14T06:47:39.675Z,12.51
2023-05-14T06:52:36.090Z,12.51
2023-05-14T06:57:32.680Z,12.28
2023-05-14T07:02:29.162Z,11.91
2023-05-14T07:08:39.816Z,11.55
2023-05-14T07:13:36.365Z,12.21
2023-05-14T07:18:32.922Z,12.51
2023-05-14T07:23:29.427Z,12.98
2023-05-14T07:29:40.142Z,13.3
2023-05-14T07:34:36.706Z,13.54
2023-05-14T07:39:33.226Z,13.65
2023-05-14T07:44:29.689Z,13.25
2023-05-14T07:50:40.365Z,13.32
2023-05-14T07:55:36.965Z,13.1
2023-05-14T08:00:33.466Z,12.97
2023-05-14T08:11:40.713Z,13.73
2023-05-14T08:16:37.225Z,13.89
2023-05-14T08:21:33.727Z,13.76
2023-05-14T08:26:30.246Z,14.33
2023-05-14T08:32:40.981Z,12.98
2023-05-14T08:37:37.420Z,12.52
2023-05-14T08:42:33.967Z,12.98
2023-05-14T08:47:30.616Z,12.44
2023-05-14T08:53:41.122Z,12.4
2023-05-14T08:58:37.710Z,11.79
2023-05-14T09:03:34.367Z,12.33
2023-05-14T09:08:30.717Z,12.66
2023-05-14T09:14:41.420Z,13.16
2023-05-14T09:19:37.973Z,12.97
2023-05-14T09:24:34.644Z,12.45
2023-05-14T09:29:31.013Z,12.6
2023-05-14T09:35:41.680Z,13.37
2023-05-14T09:40:38.205Z,12.81
2023-05-14T09:45:34.799Z,12.89
2023-05-14T09:50:31.315Z,11.06
2023-05-14T09:55:27.835Z,10.81
2023-05-14T10:01:38.590Z,10.91
2023-05-14T10:06:35.049Z,11.22
2023-05-14T10:11:31.564Z,11.06
2023-05-14T10:16:28.119Z,10.86
2023-05-14T10:22:38.756Z,10.69
2023-05-14T10:27:35.378Z,10.09
2023-05-14T10:32:31.957Z,10.19
2023-05-14T10:37:28.368Z,10.14
2023-05-14T10:43:39.025Z,9.86
2023-05-14T10:48:35.663Z,10.17
2023-05-14T10:53:32.192Z,10.45
2023-05-14T10:58:28.645Z,10.53
2023-05-14T11:04:39.343Z,10.32
2023-05-14T11:09:35.874Z,10.44
2023-05-14T11:14:32.370Z,10.32
2023-05-14T11:20:43.101Z,10.48
2023-05-14T11:25:39.648Z,10.57
2023-05-14T11:30:36.148Z,10.58
2023-05-14T11:35:32.670Z,10.19
2023-05-14T11:40:29.576Z,10.57
2023-05-14T11:46:40.033Z,10.08
2023-05-14T11:51:36.461Z,10.25
2023-05-14T11:56:33.017Z,10.86
2023-05-14T12:01:29.459Z,10.58
2023-05-14T12:07:40.138Z,12.42
2023-05-14T12:12:36.709Z,12.81
2023-05-14T12:17:33.258Z,13.95
2023-05-14T12:22:29.707Z,13.27
2023-05-14T12:28:40.399Z,11.76
2023-05-14T12:33:36.897Z,11.43
2023-05-14T12:38:33.437Z,10.43
2023-05-14T12:49:40.614Z,10
2023-05-14T12:54:37.182Z,10.11
2023-05-14T12:59:33.720Z,9.98
2023-05-14T13:04:30.287Z,9.41
2023-05-14T13:10:40.862Z,10.07
2023-05-14T13:15:37.431Z,10
2023-05-14T13:20:33.985Z,10.05
2023-05-14T13:25:30.510Z,9.18
2023-05-14T13:36:37.704Z,11.19
2023-05-14T13:41:34.337Z,10.81
2023-05-14T13:46:30.844Z,9.62
2023-05-14T13:52:41.400Z,10.88
2023-05-14T13:57:37.968Z,9.16
2023-05-14T14:02:34.591Z,9.8
2023-05-14T14:07:31.088Z,10.9
2023-05-14T14:13:42.620Z,9.78
2023-05-14T14:18:38.418Z,9.53
2023-05-14T14:23:34.825Z,9.27
2023-05-14T14:28:31.484Z,10.26
2023-05-14T14:33:28.021Z,8.98
2023-05-14T14:39:38.612Z,9.2
2023-05-14T14:44:35.165Z,9.13
2023-05-14T14:49:31.579Z,8.74
2023-05-14T14:53:14.137Z,8.78
2023-05-14T14:55:42.319Z,8.64
2023-05-14T15:00:38.872Z,9.33
2023-05-14T15:05:35.349Z,9.74
2023-05-14T15:10:32.008Z,9.56
2023-05-14T15:15:28.390Z,8.91
2023-05-14T15:21:40.500Z,8.91
2023-05-14T15:26:35.676Z,8.97
2023-05-14T15:31:32.246Z,9.51
2023-05-14T15:36:28.814Z,9.79
2023-05-14T15:42:39.455Z,8.9
2023-05-14T15:52:32.523Z,9.88
2023-05-14T15:57:29.022Z,9.22
2023-05-14T16:03:39.772Z,9.26
2023-05-14T16:08:36.170Z,8.75
2023-05-14T16:13:32.720Z,9.07
2023-05-14T16:18:29.305Z,9.02
2023-05-14T16:24:39.987Z,8.66
2023-05-14T16:29:36.485Z,8.25
2023-05-14T16:34:32.932Z,8.87
2023-05-14T16:39:29.479Z,8.44
2023-05-14T16:45:40.323Z,8.75
2023-05-14T16:50:36.645Z,8.75
2023-05-14T16:55:33.180Z,8.55
2023-05-14T17:00:29.697Z,8.78
2023-05-14T17:06:40.355Z,8.51
2023-05-14T17:11:36.918Z,8.19
2023-05-14T17:16:33.438Z,8.43
2023-05-14T17:21:30.031Z,8.38
2023-05-14T17:27:40.692Z,8.7
2023-05-14T17:32:37.323Z,8.94
2023-05-14T17:37:33.704Z,9.19
2023-05-14T17:42:30.239Z,8.93
2023-05-14T17:48:41.001Z,9.05
2023-05-14T17:53:37.515Z,8.65
2023-05-14T17:58:34.267Z,9.15
2023-05-14T18:03:30.721Z,8.71
2023-05-14T18:09:41.170Z,8.63
2023-05-14T18:14:37.727Z,8.7
2023-05-14T18:19:34.259Z,8.66
2023-05-14T18:24:30.767Z,8.64
2023-05-14T18:30:41.475Z,8.7
2023-05-14T18:35:38.014Z,8.85
2023-05-14T18:40:34.529Z,8.97
2023-05-14T18:45:31.054Z,9.53
2023-05-14T18:51:41.725Z,9.94
2023-05-14T18:56:38.257Z,10.63
2023-05-14T19:01:34.800Z,10.01
2023-05-14T19:06:31.303Z,9.73
2023-05-14T19:11:27.919Z,9.78
2023-05-14T19:17:38.612Z,10.07
2023-05-14T19:22:35.154Z,10.42
2023-05-14T19:27:31.566Z,10.7
2023-05-14T19:33:42.264Z,11.2
2023-05-14T19:38:38.840Z,11.39
2023-05-14T19:43:35.385Z,11.73
2023-05-14T19:48:31.895Z,12.32
2023-05-14T19:53:28.395Z,12.85
2023-05-14T19:59:39.148Z,13.14
2023-05-14T20:04:35.620Z,13.22
2023-05-14T20:09:32.127Z,13.38
2023-05-14T20:14:28.621Z,13.22
2023-05-14T20:20:39.450Z,13.14
2023-05-14T20:30:32.540Z,13.14
2023-05-14T20:35:28.973Z,13.3
2023-05-14T20:41:39.598Z,13.22
2023-05-14T20:46:36.232Z,13.3
2023-05-14T20:51:32.661Z,13.3
2023-05-14T21:02:40.037Z,13.22
2023-05-14T21:07:36.603Z,12.98
2023-05-14T21:12:33.049Z,12.9
2023-05-14T21:17:29.767Z,12.9
2023-05-14T21:23:40.186Z,12.82
2023-05-14T21:28:36.732Z,12.67
2023-05-14T21:33:33.259Z,12.51
2023-05-14T21:38:29.749Z,12.44
2023-05-14T21:44:40.468Z,12.36
2023-05-14T21:49:37.132Z,12.28
2023-05-14T21:54:33.511Z,12.44
2023-05-14T21:59:30.123Z,12.21
2023-05-14T22:05:40.797Z,12.36
2023-05-14T22:10:37.322Z,12.21
2023-05-14T22:15:33.748Z,12.06
2023-05-14T22:20:30.257Z,12.21
2023-05-14T22:26:40.914Z,12.13
2023-05-14T22:31:37.587Z,11.99
2023-05-14T22:36:34.099Z,11.69
2023-05-14T22:41:30.605Z,11.84
2023-05-14T22:47:41.331Z,11.84
2023-05-14T22:52:37.750Z,12.06
2023-05-14T22:57:34.321Z,12.21
2023-05-14T23:02:30.936Z,12.13
2023-05-14T23:08:41.491Z,12.06
2023-05-14T23:13:38.121Z,12.13
2023-05-14T23:18:34.855Z,12.06
2023-05-14T23:23:31.123Z,11.99
2023-05-14T23:29:41.854Z,12.13
2023-05-14T23:34:38.477Z,12.06
2023-05-14T23:39:34.919Z,11.99
2023-05-14T23:44:31.425Z,11.77
2023-05-14T23:49:27.930Z,11.69
2023-05-14T23:55:38.632Z,11.62
